Fdl, Wisconsin
Current Conditions -  °F | °C
As of 3:53 PM on Wednesday 26 Nov 2014 (Local Time) from KFLD Reporting Station
Broken Clouds Broken Clouds  
Wind Chill: 16°   Ceiling: 11000
Heat Index: 22°   Visibility: 8mi
Dew Point: 17°   Wind: 5mph
Humidity: 82%   Direction: 350°N
Pressure: 30.16"   Gusts: NA
Location:  43.7436°N, 88.3886°W
Report Text: KFLD 262153Z AUTO 35004KT 8SM BKN110 M06/M08 A3016 RMK AO2 SLP230 T10561083
Loading
Personal Weather Stations






























Interactive Weather Map New forecast layout! Learn more

10-Day Weather Forecast

Advertisements
Track Severe Weather on mobile